createdAt,value
2019-03-10T00:00:30.562Z,101015.40
2019-03-10T00:02:59.893Z,100980.77
2019-03-10T00:05:29.224Z,100980.74
2019-03-10T00:07:58.553Z,100979.00
2019-03-10T00:10:29.386Z,100968.12
2019-03-10T00:12:58.801Z,100973.72
2019-03-10T00:15:28.257Z,100967.12
2019-03-10T00:17:57.605Z,100952.36
2019-03-10T00:20:26.910Z,100947.11
2019-03-10T00:22:56.244Z,100946.16
2019-03-10T00:25:25.586Z,100941.38
2019-03-10T00:27:55.051Z,100939.13
2019-03-10T00:30:24.382Z,100910.94
2019-03-10T00:32:53.717Z,100897.45
2019-03-10T00:35:23.054Z,100901.23
2019-03-10T00:37:52.401Z,100889.91
2019-03-10T00:41:21.192Z,100890.98
2019-03-10T00:44:39.616Z,100892.81
2019-03-10T00:47:54.996Z,100887.20
2019-03-10T00:51:10.704Z,100919.47
2019-03-10T00:53:40.025Z,100914.00
2019-03-10T00:56:09.450Z,100916.68
2019-03-10T00:58:39.064Z,100901.05
2019-03-10T01:01:08.410Z,100917.16
2019-03-10T01:03:37.750Z,100914.44
2019-03-10T01:06:07.065Z,100917.02
2019-03-10T01:08:37.528Z,100920.44
2019-03-10T01:11:07.278Z,100927.25
2019-03-10T01:13:38.100Z,100954.77
2019-03-10T01:16:07.571Z,100917.52
2019-03-10T01:18:37.709Z,100917.96
2019-03-10T01:21:07.067Z,100915.00
2019-03-10T01:23:38.296Z,100923.21
2019-03-10T01:26:07.646Z,100916.16
2019-03-10T01:28:36.989Z,100936.47
2019-03-10T01:31:26.593Z,100935.93
2019-03-10T01:34:19.690Z,100924.47
2019-03-10T01:36:49.022Z,100925.77
2019-03-10T01:39:18.373Z,100927.98
2019-03-10T01:41:47.685Z,100936.56
2019-03-10T01:44:17.026Z,100934.75
2019-03-10T01:46:46.366Z,100930.05
2019-03-10T01:49:15.732Z,100933.45
2019-03-10T01:51:45.083Z,100911.76
2019-03-10T01:54:14.436Z,100893.20
2019-03-10T01:56:43.750Z,100897.66
2019-03-10T01:59:13.063Z,100886.30
2019-03-10T02:01:42.395Z,100913.11
2019-03-10T02:04:11.849Z,100869.53
2019-03-10T02:06:41.187Z,100880.36
2019-03-10T02:09:10.631Z,100889.78
2019-03-10T02:11:39.957Z,100886.41
2019-03-10T02:14:09.311Z,100861.72
2019-03-10T02:16:38.641Z,100862.42
2019-03-10T02:19:07.987Z,100864.27
2019-03-10T02:21:37.379Z,100854.61
2019-03-10T02:24:06.686Z,100844.05
2019-03-10T02:26:36.017Z,100847.41
2019-03-10T02:29:05.343Z,100824.81
2019-03-10T02:31:36.019Z,100820.76
2019-03-10T02:34:05.387Z,100816.00
2019-03-10T02:36:34.729Z,100822.37
2019-03-10T02:39:05.826Z,100803.19
2019-03-10T02:41:35.141Z,100795.00
2019-03-10T02:44:04.575Z,100795.37
2019-03-10T02:46:33.906Z,100773.61
2019-03-10T02:49:03.229Z,100788.80
2019-03-10T02:51:32.578Z,100760.89
2019-03-10T02:54:01.907Z,100754.38
2019-03-10T02:56:31.216Z,100739.19
2019-03-10T02:59:00.553Z,100730.22
2019-03-10T03:01:29.916Z,100731.07
2019-03-10T03:03:59.263Z,100714.77
2019-03-10T03:06:28.630Z,100709.38
2019-03-10T03:08:57.953Z,100686.31
2019-03-10T03:11:27.266Z,100672.44
2019-03-10T03:13:56.619Z,100653.83
2019-03-10T03:16:25.956Z,100660.05
2019-03-10T03:18:55.267Z,100674.69
2019-03-10T03:21:24.608Z,100649.63
2019-03-10T03:23:53.965Z,100673.53
2019-03-10T03:26:23.302Z,100647.08
2019-03-10T03:28:52.768Z,100636.20
2019-03-10T03:31:22.078Z,100647.88
2019-03-10T03:33:51.412Z,100620.02
2019-03-10T03:36:29.891Z,100607.78
2019-03-10T03:39:41.049Z,100607.84
2019-03-10T03:42:10.361Z,100584.79
2019-03-10T03:44:39.700Z,100584.34
2019-03-10T03:47:09.157Z,100583.55
2019-03-10T03:49:38.636Z,100627.39
2019-03-10T03:52:07.959Z,100566.55
2019-03-10T03:54:37.311Z,100540.11
2019-03-10T03:57:06.859Z,100538.90
2019-03-10T03:59:36.203Z,100542.35
2019-03-10T04:02:10.880Z,100576.58
2019-03-10T04:04:40.197Z,100551.53
2019-03-10T04:07:09.530Z,100545.63
2019-03-10T04:09:38.927Z,100533.25
2019-03-10T04:12:08.193Z,100545.98
2019-03-10T04:14:38.550Z,100530.05
2019-03-10T04:17:07.915Z,100532.33
2019-03-10T04:19:37.226Z,100539.38
2019-03-10T04:22:06.557Z,100554.17
2019-03-10T04:24:35.892Z,100558.17
2019-03-10T04:27:05.223Z,100578.55
2019-03-10T04:29:34.591Z,100566.53
2019-03-10T04:32:03.913Z,100599.78
2019-03-10T04:34:33.275Z,100613.47
2019-03-10T04:37:02.627Z,100663.13
2019-03-10T04:39:31.989Z,100628.48
2019-03-10T04:42:01.312Z,100666.33
2019-03-10T04:44:30.664Z,100640.74
2019-03-10T04:46:59.993Z,100690.30
2019-03-10T04:49:29.344Z,100677.73
2019-03-10T04:51:58.653Z,100682.12
2019-03-10T04:54:45.754Z,100708.33
2019-03-10T04:57:17.685Z,100716.28
2019-03-10T04:59:47.027Z,100691.30
2019-03-10T05:02:16.380Z,100714.03
2019-03-10T05:04:48.699Z,100685.14
2019-03-10T05:07:18.040Z,100693.72
2019-03-10T05:09:47.349Z,100708.67
2019-03-10T05:12:16.704Z,100721.45
2019-03-10T05:14:46.021Z,100798.93
2019-03-10T05:17:15.353Z,100767.53
2019-03-10T05:19:44.688Z,100802.87
2019-03-10T05:22:14.021Z,100811.38
2019-03-10T05:24:43.388Z,100821.27
2019-03-10T05:27:12.711Z,100820.31
2019-03-10T05:29:42.061Z,100814.39
2019-03-10T05:32:11.401Z,100894.47
2019-03-10T05:34:40.774Z,100867.83
2019-03-10T05:37:10.159Z,100898.00
2019-03-10T05:39:39.461Z,100925.20
2019-03-10T05:42:08.867Z,100917.56
2019-03-10T05:44:38.256Z,100928.16
2019-03-10T05:47:07.590Z,100983.15
2019-03-10T05:49:36.908Z,100993.62
2019-03-10T05:52:06.253Z,101026.75
2019-03-10T05:54:35.589Z,101086.81
2019-03-10T05:57:04.930Z,101068.36
2019-03-10T05:59:34.372Z,101067.72
2019-03-10T06:02:03.729Z,101084.77
2019-03-10T06:04:33.037Z,101148.48
2019-03-10T06:07:02.448Z,101151.59
2019-03-10T06:09:31.799Z,101188.10
2019-03-10T06:12:01.140Z,101182.15
2019-03-10T06:14:30.562Z,101199.63
2019-03-10T06:17:01.754Z,101211.72
2019-03-10T06:19:31.046Z,101218.37
2019-03-10T06:22:00.498Z,101228.27
2019-03-10T06:24:29.808Z,101242.20
2019-03-10T06:26:59.150Z,101276.00
2019-03-10T06:29:28.520Z,101276.95
2019-03-10T06:31:59.134Z,101295.11
2019-03-10T06:34:28.508Z,101284.32
2019-03-10T06:36:57.808Z,101300.42
2019-03-10T06:39:27.141Z,101314.25
2019-03-10T06:41:56.457Z,101302.11
2019-03-10T06:44:27.324Z,101321.16
2019-03-10T06:46:56.662Z,101328.53
2019-03-10T06:49:26.000Z,101344.45
2019-03-10T06:51:55.376Z,101347.05
2019-03-10T06:54:24.731Z,101378.55
2019-03-10T06:56:54.036Z,101383.72
2019-03-10T06:59:23.386Z,101401.83
2019-03-10T07:01:52.710Z,101391.00
2019-03-10T07:04:22.084Z,101408.23
2019-03-10T07:06:51.429Z,101410.83
2019-03-10T07:09:20.847Z,101407.34
2019-03-10T07:11:50.152Z,101413.34
2019-03-10T07:14:19.643Z,101414.55
2019-03-10T07:16:48.955Z,101420.98
2019-03-10T07:19:18.278Z,101447.27
2019-03-10T07:21:47.612Z,101416.92
2019-03-10T07:24:16.981Z,101417.75
2019-03-10T07:26:46.290Z,101415.06
2019-03-10T07:29:34.545Z,101426.66
2019-03-10T07:32:13.705Z,101416.69
2019-03-10T07:35:05.057Z,101439.20
2019-03-10T07:37:56.326Z,101472.96
2019-03-10T07:40:33.039Z,101499.86
2019-03-10T07:43:17.456Z,101429.40
2019-03-10T07:46:04.432Z,101474.40
2019-03-10T07:48:56.520Z,101484.73
2019-03-10T07:51:35.996Z,101467.77
2019-03-10T07:54:24.446Z,101473.38
2019-03-10T07:57:12.998Z,101472.46
2019-03-10T08:00:07.082Z,101518.34
2019-03-10T08:02:55.569Z,101495.03
2019-03-10T08:05:43.054Z,101531.80
2019-03-10T08:08:20.661Z,101515.86
2019-03-10T08:11:03.466Z,101531.52
2019-03-10T08:13:57.535Z,101531.96
2019-03-10T08:17:01.252Z,101528.48
2019-03-10T08:19:55.621Z,101568.73
2019-03-10T08:23:02.130Z,101582.16
2019-03-10T08:25:50.453Z,101573.43
2019-03-10T08:28:37.640Z,101560.89
2019-03-10T08:31:19.801Z,101549.56
2019-03-10T08:34:04.403Z,101566.80
2019-03-10T08:36:58.659Z,101575.39
2019-03-10T08:39:45.992Z,101536.86
2019-03-10T08:42:24.010Z,101604.09
2019-03-10T08:45:18.223Z,101561.69
2019-03-10T08:48:15.807Z,101579.92
2019-03-10T08:50:55.939Z,101588.20
2019-03-10T08:53:45.169Z,101596.80
2019-03-10T08:56:27.838Z,101633.08
2019-03-10T08:59:25.232Z,101605.60
2019-03-10T09:02:02.368Z,101589.95
2019-03-10T09:04:43.051Z,101594.69
2019-03-10T09:07:25.440Z,101626.32
2019-03-10T09:10:07.077Z,101641.96
2019-03-10T09:12:43.058Z,101650.27
2019-03-10T09:15:41.291Z,101638.92
2019-03-10T09:18:41.634Z,101640.97
2019-03-10T09:21:27.936Z,101655.84
2019-03-10T09:24:16.213Z,101698.02
2019-03-10T09:27:07.427Z,101745.23
2019-03-10T09:29:55.709Z,101750.83
2019-03-10T09:32:46.792Z,101794.84
2019-03-10T09:35:20.847Z,101743.22
2019-03-10T09:37:59.522Z,101760.16
2019-03-10T09:40:46.554Z,101741.70
2019-03-10T09:43:26.529Z,101758.05
2019-03-10T09:46:20.853Z,101752.76
2019-03-10T09:49:15.040Z,101748.87
2019-03-10T09:51:50.823Z,101745.31
2019-03-10T09:54:57.278Z,101761.14
2019-03-10T09:57:44.273Z,101777.34
2019-03-10T10:00:32.581Z,101764.70
2019-03-10T10:03:35.873Z,101790.99
2019-03-10T10:06:26.924Z,101789.89
2019-03-10T10:09:04.593Z,101820.05
2019-03-10T10:11:46.037Z,101778.36
2019-03-10T10:14:43.307Z,101805.12
2019-03-10T10:17:34.763Z,101790.77
2019-03-10T10:20:16.855Z,101795.10
2019-03-10T10:23:08.003Z,101798.42
2019-03-10T10:25:45.986Z,101832.05
2019-03-10T10:28:41.066Z,101860.25
2019-03-10T10:31:32.269Z,101821.36
2019-03-10T10:34:20.621Z,101849.08
2019-03-10T10:37:14.900Z,101854.28
2019-03-10T10:40:01.656Z,101840.47
2019-03-10T10:42:55.272Z,101853.91
2019-03-10T10:45:53.637Z,101882.09
2019-03-10T10:48:28.197Z,101869.42
2019-03-10T10:51:19.739Z,101872.88
2019-03-10T10:54:17.290Z,101866.38
2019-03-10T10:57:04.119Z,101878.94
2019-03-10T10:59:55.590Z,101887.03
2019-03-10T11:02:49.812Z,101899.16
2019-03-10T11:05:30.981Z,101944.84
2019-03-10T11:08:15.951Z,101962.19
2019-03-10T11:10:59.578Z,101947.15
2019-03-10T11:13:39.810Z,101943.59
2019-03-10T11:16:45.431Z,101955.16
2019-03-10T11:19:22.596Z,101921.03
2019-03-10T11:22:20.159Z,101917.52
2019-03-10T11:25:00.125Z,101916.55
2019-03-10T11:27:46.940Z,101943.60
2019-03-10T11:30:35.202Z,101952.96
2019-03-10T11:33:21.950Z,101935.25
2019-03-10T11:36:15.821Z,101953.05
2019-03-10T11:39:00.439Z,101970.75
2019-03-10T11:41:48.087Z,101957.16
2019-03-10T11:44:30.016Z,101964.34
2019-03-10T11:47:18.289Z,101954.27
2019-03-10T11:50:04.496Z,101971.42
2019-03-10T11:52:39.296Z,101972.52
2019-03-10T11:55:26.501Z,101992.64
2019-03-10T11:58:17.755Z,102014.06
2019-03-10T12:00:57.018Z,101993.14
2019-03-10T12:03:42.541Z,101978.95
2019-03-10T12:06:20.174Z,101996.72
2019-03-10T12:09:07.122Z,102001.00
2019-03-10T12:11:36.498Z,101997.90
2019-03-10T12:14:05.823Z,102016.89
2019-03-10T12:16:35.188Z,102015.48
2019-03-10T12:19:04.556Z,102022.30
2019-03-10T12:21:33.929Z,102029.91
2019-03-10T12:24:03.258Z,101994.50
2019-03-10T12:26:32.618Z,102023.90
2019-03-10T12:29:01.940Z,102004.41
2019-03-10T12:31:31.296Z,102003.41
2019-03-10T12:34:00.652Z,102031.64
2019-03-10T12:36:30.019Z,102008.15
2019-03-10T12:38:59.381Z,101979.48
2019-03-10T12:41:28.786Z,101981.72
2019-03-10T12:43:58.155Z,101988.94
2019-03-10T12:46:27.499Z,101980.81
2019-03-10T12:48:56.858Z,102024.09
2019-03-10T12:51:26.206Z,102004.33
2019-03-10T12:53:55.534Z,102061.51
2019-03-10T12:56:24.885Z,102006.86
2019-03-10T12:58:54.220Z,101995.42
2019-03-10T13:01:23.576Z,102001.93
2019-03-10T13:03:58.722Z,102022.28
2019-03-10T13:06:23.985Z,102017.20
2019-03-10T13:08:53.359Z,102016.69
2019-03-10T13:11:22.693Z,102013.95
2019-03-10T13:13:52.063Z,102001.93
2019-03-10T13:16:21.397Z,102007.30
2019-03-10T13:18:50.732Z,102004.78
2019-03-10T13:21:20.260Z,101996.45
2019-03-10T13:23:49.619Z,101992.16
2019-03-10T13:26:18.939Z,101993.86
2019-03-10T13:28:48.313Z,102019.81
2019-03-10T13:31:17.656Z,101987.58
2019-03-10T13:33:47.009Z,101997.39
2019-03-10T13:36:16.356Z,102016.79
2019-03-10T13:38:45.735Z,101985.36
2019-03-10T13:41:15.078Z,101978.70
2019-03-10T13:43:47.502Z,101982.95
2019-03-10T13:46:16.845Z,101984.25
2019-03-10T13:48:46.247Z,101966.68
2019-03-10T13:51:15.585Z,101986.33
2019-03-10T13:53:44.934Z,101966.79
2019-03-10T13:56:14.245Z,101986.19
2019-03-10T13:58:43.583Z,101995.34
2019-03-10T14:01:12.916Z,101997.64
2019-03-10T14:03:42.440Z,102010.77
2019-03-10T14:06:11.781Z,102027.70
2019-03-10T14:08:41.118Z,102003.28
2019-03-10T14:11:10.489Z,101988.77
2019-03-10T14:13:39.842Z,101978.66
2019-03-10T14:16:09.186Z,101982.75
2019-03-10T14:18:38.498Z,101977.53
2019-03-10T14:21:07.944Z,101998.94
2019-03-10T14:23:37.326Z,102004.20
2019-03-10T14:26:06.767Z,102038.42
2019-03-10T14:28:36.104Z,102075.52
2019-03-10T14:31:05.456Z,102083.24
2019-03-10T14:33:34.922Z,102084.83
2019-03-10T14:36:04.299Z,102085.24
2019-03-10T14:38:42.190Z,102092.35
2019-03-10T14:41:11.568Z,102118.30
2019-03-10T14:43:40.919Z,102124.09
2019-03-10T14:46:12.618Z,102116.23
2019-03-10T14:48:41.953Z,102121.48
2019-03-10T14:51:16.203Z,102094.61
2019-03-10T14:53:45.549Z,102099.81
2019-03-10T14:56:14.906Z,102056.78
2019-03-10T14:58:44.385Z,102064.44
2019-03-10T15:01:13.709Z,102085.45
2019-03-10T15:03:43.068Z,102044.06
2019-03-10T15:06:12.499Z,102048.20
2019-03-10T15:08:42.003Z,102055.14
2019-03-10T15:11:11.384Z,102048.69
2019-03-10T15:13:40.747Z,102043.93
2019-03-10T15:16:10.107Z,102032.22
2019-03-10T15:18:39.418Z,102029.55
2019-03-10T15:21:08.760Z,102033.60
2019-03-10T15:23:40.235Z,102026.09
2019-03-10T15:26:09.257Z,102052.64
2019-03-10T15:28:38.675Z,102055.70
2019-03-10T15:31:08.402Z,102074.50
2019-03-10T15:33:37.743Z,102035.52
2019-03-10T15:36:07.095Z,102059.02
2019-03-10T15:38:36.472Z,102093.22
2019-03-10T15:41:05.816Z,102056.56
2019-03-10T15:43:35.294Z,102063.44
2019-03-10T15:46:04.742Z,102064.67
2019-03-10T15:48:34.097Z,102080.30
2019-03-10T15:51:03.497Z,102092.00
2019-03-10T15:53:32.821Z,102101.22
2019-03-10T15:56:02.154Z,102094.34
2019-03-10T15:58:31.509Z,102115.97
2019-03-10T16:01:00.846Z,102130.64
2019-03-10T16:03:30.289Z,102122.20
2019-03-10T16:05:59.598Z,102133.20
2019-03-10T16:08:28.949Z,102130.12
2019-03-10T16:10:58.325Z,102127.91
2019-03-10T16:13:27.661Z,102153.78
2019-03-10T16:15:57.007Z,102157.62
2019-03-10T16:18:26.597Z,102151.19
2019-03-10T16:20:55.929Z,102125.25
2019-03-10T16:23:25.317Z,102134.02
2019-03-10T16:25:54.881Z,102113.70
2019-03-10T16:28:24.282Z,102115.83
2019-03-10T16:30:53.990Z,102112.94
2019-03-10T16:33:25.369Z,102110.82
2019-03-10T16:35:54.333Z,102124.42
2019-03-10T16:38:23.703Z,102135.20
2019-03-10T16:40:53.091Z,102106.67
2019-03-10T16:43:22.674Z,102149.95
2019-03-10T16:45:52.180Z,102120.05
2019-03-10T16:48:21.524Z,102124.69
2019-03-10T16:50:50.955Z,102137.27
2019-03-10T16:53:20.287Z,102115.52
2019-03-10T16:55:49.649Z,102124.09
2019-03-10T16:58:19.102Z,102120.38
2019-03-10T17:00:48.517Z,102095.09
2019-03-10T17:03:19.450Z,102086.19
2019-03-10T17:05:48.797Z,102097.70
2019-03-10T17:08:18.190Z,102109.64
2019-03-10T17:10:47.565Z,102094.27
2019-03-10T17:13:16.890Z,102084.91
2019-03-10T17:15:46.264Z,102087.67
2019-03-10T17:18:15.622Z,102096.45
2019-03-10T17:20:45.057Z,102134.34
2019-03-10T17:23:14.414Z,102216.86
2019-03-10T17:25:43.754Z,102207.91
2019-03-10T17:28:13.159Z,102193.36
2019-03-10T17:30:42.947Z,102192.54
2019-03-10T17:33:12.339Z,102175.52
2019-03-10T17:35:41.658Z,102186.80
2019-03-10T17:38:11.011Z,102198.89
2019-03-10T17:40:40.379Z,102220.44
2019-03-10T17:43:09.788Z,102219.09
2019-03-10T17:45:39.176Z,102221.17
2019-03-10T17:48:08.499Z,102239.27
2019-03-10T17:50:37.856Z,102235.34
2019-03-10T17:53:07.597Z,102233.56
2019-03-10T17:55:37.008Z,102227.07
2019-03-10T17:58:06.337Z,102237.41
2019-03-10T18:00:35.971Z,102233.95
2019-03-10T18:03:05.432Z,102230.47
2019-03-10T18:05:34.785Z,102223.56
2019-03-10T18:08:04.370Z,102213.21
2019-03-10T18:10:33.818Z,102204.55
2019-03-10T18:13:03.839Z,102204.55
2019-03-10T18:15:33.205Z,102213.59
2019-03-10T18:18:02.528Z,102223.05
2019-03-10T18:20:31.854Z,102248.50
2019-03-10T18:23:01.168Z,102262.72
2019-03-10T18:25:30.512Z,102263.09
2019-03-10T18:27:59.869Z,102260.05
2019-03-10T18:30:29.229Z,102299.30
2019-03-10T18:32:58.547Z,102257.37
2019-03-10T18:35:27.859Z,102270.73
2019-03-10T18:37:57.198Z,102259.45
2019-03-10T18:40:35.589Z,102286.64
2019-03-10T18:43:04.924Z,102227.86
2019-03-10T18:45:34.285Z,102281.36
2019-03-10T18:48:12.532Z,102309.61
2019-03-10T18:50:41.911Z,102323.58
2019-03-10T18:53:11.267Z,102327.17
2019-03-10T18:55:40.634Z,102338.91
2019-03-10T18:58:09.957Z,102342.02
2019-03-10T19:00:39.279Z,102351.97
2019-03-10T19:03:08.722Z,102348.98
2019-03-10T19:05:41.026Z,102353.73
2019-03-10T19:08:10.411Z,102399.05
2019-03-10T19:10:39.761Z,102386.11
2019-03-10T19:13:09.085Z,102368.84
2019-03-10T19:15:38.459Z,102369.70
2019-03-10T19:18:07.779Z,102391.23
2019-03-10T19:20:37.111Z,102391.22
2019-03-10T19:23:06.680Z,102458.95
2019-03-10T19:25:36.011Z,102392.89
2019-03-10T19:28:07.190Z,102368.25
2019-03-10T19:30:36.547Z,102366.52
2019-03-10T19:33:05.844Z,102371.67
2019-03-10T19:35:35.319Z,102390.62
2019-03-10T19:38:04.814Z,102476.11
2019-03-10T19:40:34.284Z,102388.48
2019-03-10T19:43:03.624Z,102391.98
2019-03-10T19:45:32.990Z,102401.91
2019-03-10T19:48:04.192Z,102404.55
2019-03-10T19:50:33.526Z,102429.17
2019-03-10T19:53:02.890Z,102421.42
2019-03-10T19:55:32.211Z,102425.73
2019-03-10T19:58:01.593Z,102442.12
2019-03-10T20:00:31.015Z,102410.19
2019-03-10T20:03:00.507Z,102415.76
2019-03-10T20:05:29.906Z,102356.63
2019-03-10T20:07:59.258Z,102389.84
2019-03-10T20:10:28.651Z,102345.80
2019-03-10T20:12:58.016Z,102326.77
2019-03-10T20:15:27.383Z,102331.46
2019-03-10T20:17:56.721Z,102380.69
2019-03-10T20:20:26.106Z,102303.38
2019-03-10T20:22:55.562Z,102315.45
2019-03-10T20:25:26.651Z,102359.89
2019-03-10T20:27:55.961Z,102370.25
2019-03-10T20:30:25.317Z,102359.87
2019-03-10T20:32:54.648Z,102302.02
2019-03-10T20:35:25.824Z,102332.24
2019-03-10T20:37:56.922Z,102329.19
2019-03-10T20:40:27.506Z,102335.67
2019-03-10T20:42:56.826Z,102352.08
2019-03-10T20:45:26.187Z,102349.03
2019-03-10T20:47:56.799Z,102330.89
2019-03-10T20:50:26.433Z,102322.28
2019-03-10T20:52:55.878Z,102329.19
2019-03-10T20:55:25.188Z,102315.80
2019-03-10T20:57:54.503Z,102312.38
2019-03-10T21:00:23.856Z,102318.42
2019-03-10T21:02:53.190Z,102332.23
2019-03-10T21:05:22.526Z,102321.41
2019-03-10T21:07:51.858Z,102338.66
2019-03-10T21:10:21.209Z,102365.44
2019-03-10T21:12:50.530Z,102354.19
2019-03-10T21:15:20.180Z,102370.59
2019-03-10T21:17:50.918Z,102378.13
2019-03-10T21:20:20.234Z,102393.41
2019-03-10T21:22:49.586Z,102414.17
2019-03-10T21:25:20.335Z,102428.47
2019-03-10T21:27:50.671Z,102435.41
2019-03-10T21:30:21.823Z,102447.94
2019-03-10T21:32:51.174Z,102466.50
2019-03-10T21:35:20.636Z,102469.06
2019-03-10T21:37:49.952Z,102464.74
2019-03-10T21:40:20.997Z,102444.52
2019-03-10T21:42:50.424Z,102408.73
2019-03-10T21:45:21.009Z,102390.62
2019-03-10T21:47:50.358Z,102398.39
2019-03-10T21:50:19.835Z,102426.40
2019-03-10T21:52:49.160Z,102427.24
2019-03-10T21:55:18.503Z,102422.95
2019-03-10T21:57:47.812Z,102420.77
2019-03-10T22:00:17.313Z,102460.42
2019-03-10T22:02:46.850Z,102452.27
2019-03-10T22:05:16.180Z,102454.83
2019-03-10T22:07:45.823Z,102433.70
2019-03-10T22:10:26.167Z,102432.42
2019-03-10T22:12:46.582Z,102432.86
2019-03-10T22:15:16.258Z,102424.69
2019-03-10T22:17:45.596Z,102423.37
2019-03-10T22:20:15.199Z,102425.06
2019-03-10T22:22:48.768Z,102436.69
2019-03-10T22:25:16.108Z,102480.25
2019-03-10T22:27:46.241Z,102437.95
2019-03-10T22:30:17.711Z,102441.36
2019-03-10T22:32:47.045Z,102440.06
2019-03-10T22:35:16.480Z,102444.78
2019-03-10T22:37:46.003Z,102440.43
2019-03-10T22:40:15.573Z,102430.52
2019-03-10T22:42:44.911Z,102433.94
2019-03-10T22:45:14.466Z,102406.33
2019-03-10T22:47:43.836Z,102439.54
2019-03-10T22:50:13.550Z,102443.44
2019-03-10T22:52:43.105Z,102445.14
2019-03-10T22:55:12.998Z,102454.63
2019-03-10T22:57:42.341Z,102423.53
2019-03-10T23:00:15.515Z,102457.20
2019-03-10T23:02:44.832Z,102454.16
2019-03-10T23:05:14.158Z,102454.17
2019-03-10T23:07:43.489Z,102442.49
2019-03-10T23:10:14.543Z,102448.99
2019-03-10T23:12:43.901Z,102456.77
2019-03-10T23:15:13.353Z,102475.30
2019-03-10T23:17:42.689Z,102459.34
2019-03-10T23:20:13.218Z,102510.68
2019-03-10T23:22:42.570Z,102501.63
2019-03-10T23:25:11.991Z,102474.44
2019-03-10T23:27:41.427Z,102464.92
2019-03-10T23:30:13.346Z,102496.44
2019-03-10T23:32:42.929Z,102470.53
2019-03-10T23:35:13.525Z,102501.61
2019-03-10T23:37:42.892Z,102517.97
2019-03-10T23:40:12.491Z,102483.02
2019-03-10T23:42:43.024Z,102496.37
2019-03-10T23:45:12.829Z,102474.80
2019-03-10T23:47:42.178Z,102481.70
2019-03-10T23:50:12.329Z,102514.09
2019-03-10T23:52:41.672Z,102572.37
2019-03-10T23:55:12.889Z,102502.86
2019-03-10T23:57:42.212Z,102509.78
